Friendship, North Carolina
Current Conditions -  °F | °C
As of 11:12 PM on Monday 22 Dec 2014 (Local Time) from KGSO Reporting Station
Light Rain Light Rain  
Wind Chill: 31°   Ceiling: 300
Heat Index: 36°   Visibility: 1mi
Dew Point: 36°   Wind: 6mph
Humidity: 100%   Direction: 10°N
Pressure: 30.05"   Gusts: NA
Location:  36.1197°N, 79.8944°W
Report Text: KGSO 230412Z 01005KT 1SM -RA BR OVC003 02/02 A3005 RMK AO2 RAB10 P0000 RVRNO
Loading
Personal Weather Stations






























Interactive Weather Map New forecast layout! Learn more

10-Day Weather Forecast

Advertisements
Track Severe Weather on mobile